Time;durP1;ratioP1;P1;durP2;ratioP2;P2;SDS_P1;SDS_P2;PMS_P1;PMS_P2;Temp;Humidity;BMP_temperature;BMP_pressure;BME280_temperature;BME280_humidity;BME280_pressure;Samples;Min_cycle;Max_cycle;Signal;HPM_P1;HPM_P2
2023/12/19 00:00:28;;;;;;;34.40;20.88;;;0.00;99.90;;;;;;5046286;28;20078;-66
2023/12/19 00:02:55;;;;;;;32.88;19.17;;;0.00;99.90;;;;;;5044414;28;20034;-66
2023/12/19 00:05:20;;;;;;;33.38;19.08;;;0.00;99.90;;;;;;5038588;28;20462;-66
2023/12/19 00:07:46;;;;;;;34.05;20.40;;;0.00;99.90;;;;;;5041844;28;20021;-66
2023/12/19 00:10:12;;;;;;;35.33;19.92;;;-0.10;99.90;;;;;;5044214;28;20048;-66
2023/12/19 00:12:38;;;;;;;32.10;18.98;;;-0.10;99.90;;;;;;5041109;28;20022;-66
2023/12/19 00:15:05;;;;;;;34.58;18.70;;;-0.20;99.90;;;;;;5041032;28;20029;-66
2023/12/19 00:17:31;;;;;;;30.60;19.13;;;-0.20;99.90;;;;;;5044201;28;20044;-66
2023/12/19 00:19:56;;;;;;;31.48;18.13;;;-0.20;99.90;;;;;;5043305;28;20021;-66
2023/12/19 00:22:23;;;;;;;28.85;18.35;;;-0.30;99.90;;;;;;5039520;28;20221;-66
2023/12/19 00:24:48;;;;;;;32.00;18.42;;;-0.30;99.90;;;;;;5040761;28;20098;-66
2023/12/19 00:27:14;;;;;;;28.20;17.50;;;-0.30;99.90;;;;;;5046756;28;20471;-66
2023/12/19 00:29:40;;;;;;;24.95;16.60;;;-0.40;99.90;;;;;;5046926;28;20021;-66
2023/12/19 00:32:06;;;;;;;28.95;18.02;;;-0.40;99.90;;;;;;5046713;28;20490;-66
2023/12/19 00:34:31;;;;;;;27.15;16.52;;;-0.40;99.90;;;;;;5048940;28;20056;-66
2023/12/19 00:36:57;;;;;;;25.92;16.00;;;-0.30;99.90;;;;;;5045408;28;20112;-66
2023/12/19 00:39:22;;;;;;;24.27;14.38;;;-0.20;99.90;;;;;;5048873;28;20111;-66
2023/12/19 00:41:48;;;;;;;25.35;14.32;;;-0.20;99.90;;;;;;5045309;28;20053;-66
2023/12/19 00:44:14;;;;;;;22.02;14.00;;;-0.30;99.90;;;;;;5046940;28;20028;-66
2023/12/19 00:46:43;;;;;;;22.42;13.82;;;-0.40;99.90;;;;;;5047500;28;20022;-66
2023/12/19 00:49:09;;;;;;;22.88;13.57;;;-0.40;99.90;;;;;;5047188;28;20149;-66
2023/12/19 00:51:35;;;;;;;25.15;15.23;;;-0.50;99.90;;;;;;5051152;28;20100;-66
2023/12/19 00:54:00;;;;;;;21.75;14.13;;;-0.50;99.90;;;;;;5049042;28;20068;-66
2023/12/19 00:56:26;;;;;;;23.55;13.30;;;-0.60;99.90;;;;;;5045615;28;20121;-66
2023/12/19 00:58:51;;;;;;;22.85;13.70;;;-0.50;99.90;;;;;;5047141;28;20021;-66
2023/12/19 01:01:22;;;;;;;23.63;14.00;;;-0.50;99.90;;;;;;5046909;28;20021;-66
2023/12/19 01:03:48;;;;;;;26.65;15.38;;;-0.60;99.90;;;;;;5048503;28;20044;-66
2023/12/19 01:06:13;;;;;;;23.83;15.35;;;-0.60;99.90;;;;;;5050002;28;20114;-66
2023/12/19 01:08:39;;;;;;;22.95;14.35;;;-0.70;99.90;;;;;;5051980;28;20119;-66
2023/12/19 01:11:07;;;;;;;26.50;15.02;;;-0.70;99.90;;;;;;5046734;28;20028;-66
2023/12/19 01:13:32;;;;;;;26.13;15.65;;;-0.70;99.90;;;;;;5049337;28;20029;-66
2023/12/19 01:15:58;;;;;;;28.92;16.25;;;-0.70;99.90;;;;;;5048713;28;20025;-66
2023/12/19 01:18:23;;;;;;;23.77;13.95;;;-0.70;99.90;;;;;;5049179;28;20501;-66
2023/12/19 01:20:50;;;;;;;27.17;14.48;;;-0.70;99.90;;;;;;5048284;28;20173;-66
2023/12/19 01:23:16;;;;;;;22.90;13.63;;;-0.70;99.90;;;;;;5047480;28;20053;-66
2023/12/19 01:25:41;;;;;;;22.20;14.25;;;-0.80;99.90;;;;;;5029646;28;20068;-66
2023/12/19 01:28:07;;;;;;;28.40;16.13;;;-0.80;99.90;;;;;;5049256;28;20016;-66
2023/12/19 01:30:33;;;;;;;25.33;15.27;;;-0.80;99.90;;;;;;5047882;28;20405;-66
2023/12/19 01:32:58;;;;;;;25.38;15.85;;;-0.70;99.90;;;;;;5048505;28;20104;-66
2023/12/19 01:35:24;;;;;;;22.63;14.20;;;-0.70;99.90;;;;;;5048718;28;20041;-66
2023/12/19 01:37:49;;;;;;;23.17;14.63;;;-0.70;99.90;;;;;;5046503;28;20029;-66
2023/12/19 01:40:15;;;;;;;22.80;13.95;;;-0.80;99.90;;;;;;5047527;28;20119;-65
2023/12/19 01:42:41;;;;;;;25.05;14.73;;;-0.90;99.90;;;;;;5045320;28;20017;-66
2023/12/19 01:45:13;;;;;;;23.27;13.88;;;-0.90;99.90;;;;;;5044922;28;20043;-66
2023/12/19 01:47:43;;;;;;;26.38;14.68;;;-1.00;99.90;;;;;;5046161;28;20021;-66
2023/12/19 01:50:11;;;;;;;25.25;13.95;;;-1.00;99.90;;;;;;5044761;28;20072;-66
2023/12/19 01:52:39;;;;;;;23.63;15.20;;;-1.10;99.90;;;;;;5044070;28;20029;-66
2023/12/19 01:55:07;;;;;;;21.20;13.23;;;-1.20;99.90;;;;;;5045120;28;20036;-66
2023/12/19 01:57:33;;;;;;;21.73;13.07;;;-1.20;99.90;;;;;;5051332;28;20052;-66
2023/12/19 01:59:59;;;;;;;20.73;12.65;;;-1.00;99.90;;;;;;5044347;28;20021;-66
2023/12/19 02:02:26;;;;;;;18.75;10.75;;;-1.00;99.90;;;;;;5053036;28;20029;-66
2023/12/19 02:04:55;;;;;;;19.70;11.10;;;-0.90;99.90;;;;;;5052587;28;20037;-65
2023/12/19 02:07:21;;;;;;;20.83;10.60;;;-0.80;99.90;;;;;;5052236;28;20024;-65
2023/12/19 02:09:47;;;;;;;18.15;11.18;;;-0.80;99.90;;;;;;5052806;28;20705;-65
2023/12/19 02:12:12;;;;;;;25.80;13.30;;;-0.50;99.90;;;;;;5052526;28;20025;-66
2023/12/19 02:14:39;;;;;;;23.40;14.13;;;-0.40;99.90;;;;;;5053679;28;20095;-65
2023/12/19 02:17:05;;;;;;;21.88;13.40;;;-0.40;99.90;;;;;;5046340;28;20037;-65
2023/12/19 02:19:31;;;;;;;18.75;12.95;;;-0.50;99.90;;;;;;5045107;28;20481;-66
2023/12/19 02:21:56;;;;;;;21.75;13.38;;;-0.60;99.90;;;;;;5033725;28;20037;-66
2023/12/19 02:24:24;;;;;;;20.85;13.77;;;-0.70;99.90;;;;;;5052917;28;20052;-66
2023/12/19 02:26:50;;;;;;;20.70;13.10;;;-0.80;99.90;;;;;;5051551;28;20394;-66
2023/12/19 02:29:16;;;;;;;19.25;13.10;;;-0.80;99.90;;;;;;5053082;28;20035;-66
2023/12/19 02:31:43;;;;;;;18.67;12.30;;;-0.90;99.90;;;;;;5051525;28;20045;-66
2023/12/19 02:34:09;;;;;;;20.83;10.77;;;-1.00;99.90;;;;;;5044355;28;20025;-66
2023/12/19 02:36:36;;;;;;;17.75;11.23;;;-1.00;99.90;;;;;;5052268;28;20033;-65
2023/12/19 02:39:01;;;;;;;21.23;11.82;;;-0.90;99.90;;;;;;5051128;28;20025;-66
2023/12/19 02:41:27;;;;;;;20.63;11.73;;;-0.90;99.90;;;;;;5051934;28;20029;-66
2023/12/19 02:43:52;;;;;;;14.23;10.20;;;-1.00;99.90;;;;;;5051122;28;20025;-66
2023/12/19 02:46:18;;;;;;;16.60;9.82;;;-1.00;99.90;;;;;;5051898;28;20053;-67
2023/12/19 02:48:43;;;;;;;21.58;11.95;;;-1.00;99.90;;;;;;5051555;28;20088;-66
2023/12/19 02:51:09;;;;;;;18.45;11.45;;;-1.00;99.90;;;;;;5045804;28;20028;-66
2023/12/19 02:53:35;;;;;;;18.90;10.68;;;-1.00;99.90;;;;;;5051900;28;20104;-66
2023/12/19 02:56:00;;;;;;;17.55;10.55;;;-1.00;99.90;;;;;;5051434;28;20037;-66
2023/12/19 02:58:26;;;;;;;18.50;10.07;;;-1.00;99.90;;;;;;5043430;28;20116;-66
2023/12/19 03:00:52;;;;;;;20.48;11.38;;;-1.00;99.90;;;;;;5050969;28;20355;-65
2023/12/19 03:03:18;;;;;;;21.63;12.40;;;-0.80;99.90;;;;;;5051544;28;20032;-65
2023/12/19 03:05:43;;;;;;;21.95;11.98;;;-0.60;99.90;;;;;;5052115;28;20033;-65
2023/12/19 03:08:09;;;;;;;17.55;11.10;;;-0.70;99.90;;;;;;5042455;28;20803;-66
2023/12/19 03:10:34;;;;;;;20.63;11.88;;;-0.80;99.90;;;;;;5052119;28;20529;-66
2023/12/19 03:13:00;;;;;;;21.92;12.23;;;-0.90;99.90;;;;;;5050510;28;20036;-66
2023/12/19 03:15:26;;;;;;;20.58;12.48;;;-1.00;99.90;;;;;;5052210;28;20036;-66
2023/12/19 03:17:51;;;;;;;19.73;11.88;;;-1.10;99.90;;;;;;5029168;28;20029;-66
2023/12/19 03:20:17;;;;;;;21.05;12.45;;;-1.10;99.90;;;;;;5042617;28;20036;-66
2023/12/19 03:22:42;;;;;;;21.10;12.63;;;-1.10;99.90;;;;;;5051580;28;20112;-66
2023/12/19 03:25:08;;;;;;;21.70;11.70;;;-1.20;99.90;;;;;;5046162;28;20037;-66
2023/12/19 03:27:33;;;;;;;19.83;12.48;;;-1.20;99.90;;;;;;5051405;28;20025;-66
2023/12/19 03:29:59;;;;;;;18.83;11.40;;;-1.30;99.90;;;;;;5050647;28;20024;-66
2023/12/19 03:32:24;;;;;;;16.55;9.95;;;-1.30;99.90;;;;;;5050530;28;20102;-66
2023/12/19 03:34:50;;;;;;;17.50;10.15;;;-1.30;99.90;;;;;;5049081;28;20032;-66
2023/12/19 03:37:16;;;;;;;14.88;9.77;;;-1.30;99.90;;;;;;5049589;28;20032;-66
2023/12/19 03:39:41;;;;;;;16.77;9.93;;;-1.20;99.90;;;;;;5051061;28;20025;-66
2023/12/19 03:42:07;;;;;;;17.30;10.30;;;-1.10;99.90;;;;;;5042269;28;20688;-65
2023/12/19 03:44:32;;;;;;;15.75;9.32;;;-1.10;99.90;;;;;;5051361;28;20099;-66
2023/12/19 03:46:58;;;;;;;15.32;9.13;;;-1.20;99.90;;;;;;5050238;28;20025;-66
2023/12/19 03:49:24;;;;;;;15.50;9.05;;;-1.30;99.90;;;;;;5051535;28;20033;-66
2023/12/19 03:51:49;;;;;;;16.30;10.25;;;-1.30;99.90;;;;;;5049802;28;20029;-66
2023/12/19 03:54:15;;;;;;;17.60;10.38;;;-1.30;99.90;;;;;;5051584;28;20036;-65
2023/12/19 03:56:41;;;;;;;17.38;9.65;;;-1.30;99.90;;;;;;5049400;28;20056;-66
2023/12/19 03:59:12;;;;;;;16.98;10.05;;;-1.00;99.90;;;;;;5045352;28;20154;-66
2023/12/19 04:01:44;;;;;;;13.68;8.52;;;-1.00;99.90;;;;;;5050312;28;20036;-66
2023/12/19 04:04:14;;;;;;;13.88;8.60;;;-1.10;99.90;;;;;;5032569;28;20544;-65
2023/12/19 04:06:43;;;;;;;14.82;8.65;;;-1.20;99.90;;;;;;5045671;28;20025;-66
2023/12/19 04:09:09;;;;;;;12.65;8.30;;;-1.20;99.90;;;;;;5048083;28;20033;-65
2023/12/19 04:11:35;;;;;;;17.63;9.00;;;-1.20;99.90;;;;;;5050269;28;20033;-66
2023/12/19 04:14:01;;;;;;;14.77;9.02;;;-1.30;99.90;;;;;;5049915;28;20033;-66
2023/12/19 04:16:26;;;;;;;12.98;8.75;;;-1.30;99.90;;;;;;5042814;28;20082;-66
2023/12/19 04:18:52;;;;;;;11.32;7.07;;;-1.20;99.90;;;;;;5048334;28;20033;-66
2023/12/19 04:21:17;;;;;;;12.13;7.85;;;-1.10;99.90;;;;;;5050158;28;20037;-66
2023/12/19 04:23:43;;;;;;;13.07;8.20;;;-1.10;99.90;;;;;;5050970;28;20033;-66
2023/12/19 04:26:08;;;;;;;12.68;7.82;;;-1.10;99.90;;;;;;5050163;28;20451;-66
2023/12/19 04:28:34;;;;;;;12.10;7.68;;;-1.10;99.90;;;;;;5050842;28;20043;-66
2023/12/19 04:30:59;;;;;;;15.77;7.97;;;-1.10;99.90;;;;;;5049330;28;20059;-66
2023/12/19 04:33:25;;;;;;;16.10;7.32;;;-1.20;99.90;;;;;;5045127;28;20075;-66
2023/12/19 04:35:51;;;;;;;13.15;7.80;;;-1.30;99.90;;;;;;5030763;28;20505;-66
2023/12/19 04:38:16;;;;;;;15.13;8.23;;;-1.30;99.90;;;;;;5049551;28;20025;-66
2023/12/19 04:40:42;;;;;;;13.68;8.52;;;-1.40;99.90;;;;;;5051217;28;20029;-65
2023/12/19 04:43:07;;;;;;;13.05;8.80;;;-1.40;99.90;;;;;;5049407;28;20258;-66
2023/12/19 04:45:33;;;;;;;13.23;8.15;;;-1.50;99.90;;;;;;5050483;28;20084;-66
2023/12/19 04:47:58;;;;;;;14.68;8.02;;;-1.50;99.90;;;;;;5049174;28;20055;-66
2023/12/19 04:50:24;;;;;;;15.35;8.18;;;-1.50;99.90;;;;;;5042705;28;20418;-65
2023/12/19 04:52:49;;;;;;;29.15;14.57;;;-1.60;99.90;;;;;;5049313;28;20047;-66
2023/12/19 04:55:15;;;;;;;27.27;13.40;;;-1.60;99.90;;;;;;5049536;28;20029;-64
2023/12/19 04:57:41;;;;;;;27.77;11.98;;;-1.60;99.90;;;;;;5050054;28;20056;-64
2023/12/19 05:00:07;;;;;;;19.25;9.57;;;-1.60;99.90;;;;;;5049276;28;20028;-64
2023/12/19 05:02:32;;;;;;;19.73;9.45;;;-1.60;99.90;;;;;;5050055;28;20025;-64
2023/12/19 05:04:58;;;;;;;16.65;8.02;;;-1.50;99.90;;;;;;5049715;28;20090;-65
2023/12/19 05:07:24;;;;;;;12.70;7.95;;;-1.50;99.90;;;;;;5033901;28;20057;-64
2023/12/19 05:09:50;;;;;;;12.20;7.80;;;-1.50;99.90;;;;;;5049663;28;20029;-66
2023/12/19 05:12:16;;;;;;;13.60;8.63;;;-1.50;99.90;;;;;;5050235;28;20422;-64
2023/12/19 05:14:41;;;;;;;14.77;9.13;;;-1.60;99.90;;;;;;5054353;28;20029;-64
2023/12/19 05:17:07;;;;;;;13.75;8.32;;;-1.60;99.90;;;;;;5052657;28;20454;-63
2023/12/19 05:19:33;;;;;;;15.45;8.70;;;-1.60;99.90;;;;;;5048817;28;20043;-66
2023/12/19 05:21:58;;;;;;;14.23;8.63;;;-1.60;99.90;;;;;;5052721;28;20458;-65
2023/12/19 05:24:24;;;;;;;15.20;9.07;;;-1.50;99.90;;;;;;5046127;28;20033;-65
2023/12/19 05:26:49;;;;;;;12.95;8.23;;;-1.40;99.90;;;;;;5052848;28;20096;-66
2023/12/19 05:29:15;;;;;;;16.73;9.02;;;-1.50;99.90;;;;;;5054255;28;20032;-66
2023/12/19 05:31:40;;;;;;;14.90;8.02;;;-1.50;99.90;;;;;;5048024;28;20486;-65
2023/12/19 05:34:06;;;;;;;13.55;8.68;;;-1.60;99.90;;;;;;5053551;28;20092;-66
2023/12/19 05:36:34;;;;;;;15.23;8.55;;;-1.60;99.90;;;;;;5053194;28;20083;-66
2023/12/19 05:39:01;;;;;;;15.10;7.97;;;-1.70;99.90;;;;;;5052319;28;20036;-66
2023/12/19 05:41:26;;;;;;;19.05;10.52;;;-1.80;99.90;;;;;;5048253;28;20079;-67
2023/12/19 05:43:56;;;;;;;21.73;10.88;;;-1.80;99.90;;;;;;5052715;28;20033;-65
2023/12/19 05:46:21;;;;;;;20.02;10.55;;;-1.90;99.90;;;;;;5052797;28;20478;-66
2023/12/19 05:48:47;;;;;;;26.80;13.15;;;-1.90;99.90;;;;;;5053291;28;20104;-66
2023/12/19 05:51:14;;;;;;;21.73;11.80;;;-1.80;99.90;;;;;;5053000;28;20112;-66
2023/12/19 05:53:40;;;;;;;18.70;10.77;;;-1.80;99.90;;;;;;5050216;28;20028;-66
2023/12/19 05:56:10;;;;;;;20.25;9.95;;;-1.80;99.90;;;;;;5049359;28;20827;-66
2023/12/19 05:58:36;;;;;;;17.60;10.93;;;-1.90;99.90;;;;;;5046309;28;20082;-67
2023/12/19 06:01:01;;;;;;;20.17;10.85;;;-1.90;99.90;;;;;;5052521;28;20029;-65
2023/12/19 06:03:27;;;;;;;22.30;11.05;;;-2.00;99.90;;;;;;5052594;28;20422;-65
2023/12/19 06:05:52;;;;;;;22.55;11.52;;;-2.10;99.90;;;;;;5045178;28;20041;-68
2023/12/19 06:08:18;;;;;;;16.80;9.77;;;-2.00;99.90;;;;;;5051747;28;20039;-67
2023/12/19 06:10:44;;;;;;;19.67;11.07;;;-2.00;99.90;;;;;;5053355;28;20029;-66
2023/12/19 06:13:09;;;;;;;14.73;8.85;;;-1.80;99.90;;;;;;5050781;28;20466;-68
2023/12/19 06:15:35;;;;;;;18.00;9.70;;;-1.70;99.90;;;;;;5048875;28;20033;-66
2023/12/19 06:18:00;;;;;;;18.38;10.65;;;-1.70;99.90;;;;;;5046283;28;20043;-64
2023/12/19 06:20:26;;;;;;;20.58;11.25;;;-1.70;99.90;;;;;;5052564;28;20083;-66
2023/12/19 06:22:51;;;;;;;18.98;11.18;;;-1.70;99.90;;;;;;5051400;28;20439;-65
2023/12/19 06:25:17;;;;;;;22.35;13.52;;;-1.70;99.90;;;;;;5052781;28;20037;-68
2023/12/19 06:27:44;;;;;;;19.30;11.65;;;-1.70;99.90;;;;;;5052446;28;20047;-70
2023/12/19 06:30:10;;;;;;;21.63;13.20;;;-1.70;99.90;;;;;;5045435;28;20784;-66
2023/12/19 06:32:36;;;;;;;27.25;13.05;;;-1.80;99.90;;;;;;5052167;28;20044;-65
2023/12/19 06:35:07;;;;;;;26.65;14.52;;;-1.90;99.90;;;;;;5051711;28;20033;-63
2023/12/19 06:37:34;;;;;;;22.58;13.25;;;-1.90;99.90;;;;;;5052294;28;20174;-63
2023/12/19 06:40:00;;;;;;;25.60;12.77;;;-1.90;99.90;;;;;;5051038;28;20029;-63
2023/12/19 06:42:25;;;;;;;24.00;12.93;;;-1.80;99.90;;;;;;5051962;28;20071;-63
2023/12/19 06:44:51;;;;;;;23.63;13.68;;;-1.80;99.90;;;;;;5051470;28;20037;-63
2023/12/19 06:47:17;;;;;;;22.10;11.52;;;-1.80;99.90;;;;;;5050223;28;20025;-66
2023/12/19 06:49:43;;;;;;;20.35;11.95;;;-1.70;99.90;;;;;;5049012;28;20028;-67
2023/12/19 06:52:09;;;;;;;19.67;11.68;;;-1.70;99.90;;;;;;5051390;28;20053;-64
2023/12/19 06:54:38;;;;;;;27.77;13.73;;;-1.80;99.90;;;;;;5051474;28;20456;-65
2023/12/19 06:57:04;;;;;;;23.42;12.63;;;-1.80;99.90;;;;;;5051183;28;20079;-66
2023/12/19 06:59:33;;;;;;;26.67;12.90;;;-1.90;99.90;;;;;;5052514;28;20033;-63
2023/12/19 07:01:58;;;;;;;30.55;14.05;;;-1.90;99.90;;;;;;5050605;28;20029;-63
2023/12/19 07:04:24;;;;;;;30.10;13.32;;;-1.80;99.90;;;;;;5049107;28;20119;-63
2023/12/19 07:06:49;;;;;;;23.77;11.23;;;-1.80;99.90;;;;;;5046084;28;20033;-62
2023/12/19 07:09:15;;;;;;;18.52;11.05;;;-1.80;99.90;;;;;;5052435;28;20048;-63
2023/12/19 07:11:41;;;;;;;19.35;11.43;;;-1.80;99.90;;;;;;5032259;28;20029;-69
2023/12/19 07:14:07;;;;;;;20.60;11.63;;;-1.80;99.90;;;;;;5051252;28;20200;-65
2023/12/19 07:16:33;;;;;;;20.38;11.43;;;-1.70;99.90;;;;;;5051515;28;20107;-66
2023/12/19 07:19:00;;;;;;;17.50;10.60;;;-1.70;99.90;;;;;;5042723;28;20108;-64
2023/12/19 07:21:26;;;;;;;19.27;10.93;;;-1.60;99.90;;;;;;5039076;28;20519;-64
2023/12/19 07:23:53;;;;;;;19.02;9.77;;;-1.60;99.90;;;;;;5048717;28;20115;-64
2023/12/19 07:26:23;;;;;;;19.35;11.43;;;-1.60;99.90;;;;;;5051206;28;20458;-64
2023/12/19 07:28:50;;;;;;;;;;;-1.60;99.90;;;;;;5042323;28;20037;-65
2023/12/19 07:31:31;;;;;;;16.30;9.60;;;-1.70;99.90;;;;;;5030724;28;20387;-63
2023/12/19 07:33:57;;;;;;;17.88;10.07;;;-1.70;99.90;;;;;;5041159;28;20522;-63
2023/12/19 07:36:23;;;;;;;20.00;10.68;;;-1.80;99.90;;;;;;5045097;28;20434;-63
2023/12/19 07:38:49;;;;;;;25.40;13.60;;;-1.80;99.90;;;;;;5046871;28;20032;-64
2023/12/19 07:41:15;;;;;;;24.85;13.20;;;-1.80;99.90;;;;;;5053213;28;20107;-62
2023/12/19 07:43:41;;;;;;;20.38;12.35;;;-1.80;99.90;;;;;;5045265;28;20057;-63
2023/12/19 07:46:06;;;;;;;25.15;13.98;;;-1.80;99.90;;;;;;5050795;28;20029;-65
2023/12/19 07:48:33;;;;;;;27.23;15.55;;;-1.80;99.90;;;;;;5045823;28;20147;-63
2023/12/19 07:50:58;;;;;;;25.55;14.52;;;-1.80;99.90;;;;;;5040408;28;20089;-65
2023/12/19 07:53:28;;;;;;;23.63;13.93;;;-1.80;99.90;;;;;;5045529;28;20108;-62
2023/12/19 07:55:54;;;;;;;26.73;14.55;;;-1.90;99.90;;;;;;5043086;28;20041;-62
2023/12/19 07:58:19;;;;;;;24.73;14.43;;;-1.90;99.90;;;;;;5050127;28;20040;-62
2023/12/19 08:00:47;;;;;;;31.15;15.00;;;-1.90;99.90;;;;;;5024979;28;20429;-62
2023/12/19 08:03:15;;;;;;;27.15;14.60;;;-1.80;99.90;;;;;;5042880;28;20029;-63
2023/12/19 08:05:50;;;;;;;28.95;14.77;;;-1.80;99.90;;;;;;5045180;28;20045;-64
2023/12/19 08:08:19;;;;;;;26.15;14.73;;;-1.70;99.90;;;;;;5044432;28;20036;-63
2023/12/19 08:10:45;;;;;;;24.92;14.68;;;-1.60;99.90;;;;;;5031206;28;20044;-63
2023/12/19 08:13:12;;;;;;;26.75;14.98;;;-1.60;99.90;;;;;;5031600;28;20056;-63
2023/12/19 08:15:37;;;;;;;33.85;16.50;;;-1.60;99.90;;;;;;5039955;28;20063;-64
2023/12/19 08:18:03;;;;;;;28.58;15.82;;;-1.50;99.90;;;;;;5039255;28;20025;-64
2023/12/19 08:20:29;;;;;;;26.23;16.25;;;-1.50;99.90;;;;;;5040758;28;20104;-64
2023/12/19 08:22:55;;;;;;;32.60;17.45;;;-1.50;99.90;;;;;;5049364;28;20029;-64
2023/12/19 08:25:21;;;;;;;31.45;17.33;;;-1.50;99.90;;;;;;5043866;28;20040;-64
2023/12/19 08:27:46;;;;;;;32.33;18.30;;;-1.50;99.90;;;;;;5028474;28;20056;-65
2023/12/19 08:30:12;;;;;;;34.67;18.10;;;-1.50;99.90;;;;;;5039727;28;20100;-63
2023/12/19 08:32:38;;;;;;;37.28;18.88;;;-1.50;99.90;;;;;;5050202;28;20043;-63
2023/12/19 08:35:05;;;;;;;31.98;17.95;;;-1.30;99.90;;;;;;5039211;28;20041;-63
2023/12/19 08:37:31;;;;;;;33.75;19.73;;;-1.30;99.90;;;;;;5049248;28;20037;-63
2023/12/19 08:39:59;;;;;;;34.42;19.30;;;-1.20;99.90;;;;;;5036501;28;20026;-63
2023/12/19 08:42:25;;;;;;;32.28;19.73;;;-1.10;99.90;;;;;;5046676;28;20037;-63
2023/12/19 08:44:52;;;;;;;33.60;18.52;;;-1.10;99.90;;;;;;5038733;28;20037;-64
2023/12/19 08:47:17;;;;;;;39.55;20.17;;;-1.00;99.90;;;;;;5043361;28;20033;-63
2023/12/19 08:49:43;;;;;;;31.13;18.20;;;-0.90;99.90;;;;;;5047204;28;20083;-64
2023/12/19 08:52:12;;;;;;;30.58;17.33;;;-0.90;99.90;;;;;;5052948;28;20914;-63
2023/12/19 08:54:38;;;;;;;28.40;15.85;;;-0.70;99.90;;;;;;5047043;28;20032;-63
2023/12/19 08:57:07;;;;;;;31.13;17.45;;;-0.60;99.90;;;;;;5053024;28;20552;-63
2023/12/19 08:59:32;;;;;;;28.42;16.02;;;-0.60;99.90;;;;;;5036781;28;20079;-63
2023/12/19 09:01:58;;;;;;;30.02;17.67;;;-0.50;99.90;;;;;;5045441;28;20029;-63
2023/12/19 09:04:24;;;;;;;31.83;18.60;;;-0.50;99.90;;;;;;5048512;28;20029;-63
2023/12/19 09:06:50;;;;;;;28.33;16.55;;;-0.40;99.90;;;;;;5046109;28;20032;-64
2023/12/19 09:09:15;;;;;;;26.85;17.13;;;-0.40;99.90;;;;;;5048060;28;20026;-63
2023/12/19 09:11:42;;;;;;;29.63;17.90;;;-0.30;99.90;;;;;;5045360;28;20087;-63
2023/12/19 09:14:08;;;;;;;29.75;18.05;;;-0.30;99.90;;;;;;5046824;28;20155;-63
2023/12/19 09:16:33;;;;;;;32.10;17.88;;;-0.20;99.90;;;;;;5041056;28;20497;-63
2023/12/19 09:19:00;;;;;;;27.02;16.30;;;-0.10;99.90;;;;;;5041628;28;20021;-63
2023/12/19 09:21:26;;;;;;;34.50;17.35;;;0.00;99.90;;;;;;5040072;28;20524;-63
2023/12/19 09:23:52;;;;;;;27.20;17.38;;;0.10;99.90;;;;;;5052438;28;20025;-63
2023/12/19 09:26:18;;;;;;;39.20;20.50;;;0.20;99.90;;;;;;5038623;28;20029;-63
2023/12/19 09:28:44;;;;;;;36.40;18.55;;;0.30;99.90;;;;;;5052186;28;20037;-63
2023/12/19 09:31:10;;;;;;;29.02;15.23;;;0.40;99.90;;;;;;5049613;28;20108;-64
2023/12/19 09:33:38;;;;;;;27.25;15.95;;;0.50;99.90;;;;;;5053319;28;20411;-63
2023/12/19 09:36:18;;;;;;;21.42;14.82;;;0.70;99.90;;;;;;5037925;28;20037;-63
2023/12/19 09:38:45;;;;;;;28.13;16.58;;;0.80;99.90;;;;;;5051894;28;20100;-62
2023/12/19 09:41:11;;;;;;;22.40;14.55;;;0.90;99.90;;;;;;5052523;28;20037;-63
2023/12/19 09:43:36;;;;;;;30.83;15.90;;;0.90;99.90;;;;;;5052878;28;20494;-63
2023/12/19 09:46:02;;;;;;;23.75;14.68;;;1.10;99.90;;;;;;5038842;28;20517;-63
2023/12/19 09:48:37;;;;;;;23.70;14.43;;;1.10;99.90;;;;;;5053048;28;20128;-63
2023/12/19 09:51:05;;;;;;;21.85;14.07;;;1.20;99.90;;;;;;5042534;28;20086;-63
2023/12/19 09:53:34;;;;;;;19.98;12.82;;;1.30;99.90;;;;;;5046196;28;20025;-62
2023/12/19 09:56:01;;;;;;;21.60;13.50;;;1.50;99.90;;;;;;5043418;28;21531;-63
2023/12/19 09:58:28;;;;;;;22.95;13.13;;;1.60;99.90;;;;;;5052041;28;20082;-63
2023/12/19 10:01:00;;;;;;;24.33;15.10;;;1.60;99.90;;;;;;5035005;28;20476;-63
2023/12/19 10:03:29;;;;;;;26.02;14.43;;;1.50;99.90;;;;;;5052377;28;20025;-62
2023/12/19 10:05:56;;;;;;;22.45;13.75;;;1.60;99.90;;;;;;5032364;28;20045;-63
2023/12/19 10:08:22;;;;;;;23.50;14.02;;;1.60;99.90;;;;;;5052533;28;20029;-63
2023/12/19 10:11:07;;;;;;;22.13;14.20;;;1.50;99.90;;;;;;5026920;28;20116;-64
2023/12/19 10:13:35;;;;;;;24.50;14.75;;;1.50;99.90;;;;;;5044893;28;20386;-63
2023/12/19 10:16:08;;;;;;;23.33;14.05;;;1.40;99.90;;;;;;5033152;28;20049;-62
2023/12/19 10:18:34;;;;;;;23.13;14.05;;;1.30;99.90;;;;;;5051195;28;20111;-63
2023/12/19 10:21:08;;;;;;;22.00;13.90;;;1.20;99.90;;;;;;5049291;28;20501;-63
2023/12/19 10:23:43;;;;;;;22.65;13.80;;;1.10;99.90;;;;;;5047159;28;20033;-64
2023/12/19 10:26:10;;;;;;;24.58;15.48;;;1.10;99.90;;;;;;5018206;28;20171;-63
2023/12/19 10:28:37;;;;;;;28.48;15.30;;;1.00;99.90;;;;;;5048256;28;20048;-63
2023/12/19 10:31:15;;;;;;;25.75;14.20;;;1.10;99.90;;;;;;5045387;28;20048;-63
2023/12/19 10:33:45;;;;;;;30.77;15.98;;;1.10;99.90;;;;;;5035907;28;20021;-63
2023/12/19 10:36:28;;;;;;;27.15;14.77;;;1.30;99.90;;;;;;5040614;28;20025;-63
2023/12/19 10:38:56;;;;;;;25.67;14.88;;;1.20;99.90;;;;;;5049908;28;20047;-63
2023/12/19 10:41:31;;;;;;;21.63;14.13;;;1.30;99.90;;;;;;5045896;28;20036;-63
2023/12/19 10:43:58;;;;;;;25.75;15.48;;;1.20;99.90;;;;;;5019522;28;20079;-63
2023/12/19 10:46:27;;;;;;;22.63;13.90;;;1.20;99.90;;;;;;5041141;28;20040;-63
2023/12/19 10:49:04;;;;;;;23.13;14.20;;;1.20;99.90;;;;;;5043833;28;20102;-63
2023/12/19 10:51:39;;;;;;;23.33;14.35;;;1.30;99.90;;;;;;5039306;28;20032;-63
2023/12/19 10:54:12;;;;;;;23.77;14.23;;;1.20;99.90;;;;;;5048167;28;20028;-63
2023/12/19 10:57:05;;;;;;;27.80;15.73;;;1.10;99.90;;;;;;5037815;28;20089;-62
2023/12/19 11:00:09;;;;;;;24.13;14.68;;;1.10;99.90;;;;;;5051367;28;20033;-62
2023/12/19 11:03:05;;;;;;;24.10;14.13;;;1.10;99.90;;;;;;5038844;28;20090;-62
2023/12/19 11:05:46;;;;;;;24.33;14.45;;;1.10;99.90;;;;;;5038099;28;20046;-63
2023/12/19 11:08:15;;;;;;;25.38;14.60;;;1.00;99.90;;;;;;5035333;28;20028;-61
2023/12/19 11:10:45;;;;;;;24.92;15.20;;;1.10;99.90;;;;;;5049151;28;20041;-62
2023/12/19 11:13:12;;;;;;;25.33;15.38;;;1.10;99.90;;;;;;5050630;28;20037;-62
2023/12/19 11:15:46;;;;;;;23.95;14.52;;;1.10;99.90;;;;;;5040519;28;20144;-63
2023/12/19 11:18:54;;;;;;;25.15;15.30;;;1.10;99.90;;;;;;5032153;28;20021;-63
2023/12/19 11:22:06;;;;;;;27.58;15.02;;;1.20;99.90;;;;;;5035822;28;20079;-63
2023/12/19 11:24:42;;;;;;;23.67;13.93;;;1.40;99.90;;;;;;5039373;28;20028;-63
2023/12/19 11:27:21;;;;;;;21.17;13.57;;;1.60;99.90;;;;;;5040171;28;20036;-63
2023/12/19 11:29:53;;;;;;;21.92;13.00;;;1.70;99.90;;;;;;5029366;28;20030;-64
2023/12/19 11:32:28;;;;;;;24.50;13.50;;;1.90;99.90;;;;;;5034621;28;20056;-62
2023/12/19 11:34:54;;;;;;;21.58;14.00;;;2.00;99.90;;;;;;5048434;28;20038;-62
2023/12/19 11:37:21;;;;;;;25.77;14.45;;;2.10;99.90;;;;;;5036294;28;20148;-64
2023/12/19 11:39:47;;;;;;;20.08;13.23;;;2.10;99.90;;;;;;5050832;28;20382;-64
2023/12/19 11:42:37;;;;;;;24.15;15.05;;;2.10;99.90;;;;;;5039614;28;20035;-64
2023/12/19 11:45:18;;;;;;;25.50;14.50;;;2.20;99.90;;;;;;5038759;28;20033;-64
2023/12/19 11:47:44;;;;;;;22.63;13.93;;;2.20;99.90;;;;;;5044741;28;20082;-64
2023/12/19 11:50:15;;;;;;;20.33;13.27;;;2.20;99.90;;;;;;5046914;28;20885;-64
2023/12/19 11:52:42;;;;;;;23.75;13.90;;;2.30;99.90;;;;;;5039296;28;20033;-64
2023/12/19 11:55:08;;;;;;;24.30;15.10;;;2.30;99.90;;;;;;5041960;28;20108;-64
2023/12/19 11:57:34;;;;;;;23.70;14.60;;;2.40;99.90;;;;;;5046381;28;20466;-64
2023/12/19 12:00:01;;;;;;;21.52;14.23;;;2.50;99.90;;;;;;5045392;28;20032;-64
2023/12/19 12:02:34;;;;;;;22.27;13.35;;;2.50;99.90;;;;;;5049874;28;20020;-64
2023/12/19 12:05:04;;;;;;;22.70;14.38;;;2.60;99.90;;;;;;5046351;28;20120;-64
2023/12/19 12:07:30;;;;;;;;;;;2.70;99.90;;;;;;5038438;28;20025;-63
2023/12/19 12:10:06;;;;;;;23.80;13.52;;;2.90;99.90;;;;;;5049705;28;19919;-63
2023/12/19 12:12:35;;;;;;;19.65;13.63;;;3.00;99.90;;;;;;5039726;28;20112;-63
2023/12/19 12:15:07;;;;;;;20.70;13.75;;;3.10;99.90;;;;;;5034081;28;20357;-63
2023/12/19 12:17:36;;;;;;;20.90;12.93;;;3.20;99.90;;;;;;5040295;28;20454;-63
2023/12/19 12:20:03;;;;;;;20.38;14.05;;;3.30;99.90;;;;;;5037751;28;20041;-63
2023/12/19 12:22:30;;;;;;;21.30;14.07;;;3.30;99.90;;;;;;5041566;28;20040;-63
2023/12/19 12:24:56;;;;;;;20.60;13.35;;;3.30;99.90;;;;;;5047649;28;20037;-63
2023/12/19 12:27:22;;;;;;;21.23;13.75;;;3.10;99.90;;;;;;5041531;28;20044;-63
2023/12/19 12:29:48;;;;;;;20.20;13.63;;;3.10;99.90;;;;;;5049985;28;20037;-64
2023/12/19 12:32:14;;;;;;;24.10;13.65;;;3.00;99.90;;;;;;5027796;28;20049;-63